sensor_id;sensor_type;location;lat;lon;timestamp;temperature;humidity
5196;DHT22;2617;51.006;12.436;2023-04-25T00:01:21;6.00;99.90
5196;DHT22;2617;51.006;12.436;2023-04-25T00:06:24;5.90;99.90
5196;DHT22;2617;51.006;12.436;2023-04-25T00:11:27;5.90;99.90
5196;DHT22;2617;51.006;12.436;2023-04-25T00:16:30;5.80;99.90
5196;DHT22;2617;51.006;12.436;2023-04-25T00:21:33;5.70;99.90
5196;DHT22;2617;51.006;12.436;2023-04-25T00:26:35;5.60;99.90
5196;DHT22;2617;51.006;12.436;2023-04-25T00:31:38;5.60;99.90
5196;DHT22;2617;51.006;12.436;2023-04-25T00:36:40;5.60;99.90
5196;DHT22;2617;51.006;12.436;2023-04-25T00:41:43;5.50;99.90
5196;DHT22;2617;51.006;12.436;2023-04-25T00:46:47;5.40;99.90
5196;DHT22;2617;51.006;12.436;2023-04-25T00:51:50;5.40;99.90
5196;DHT22;2617;51.006;12.436;2023-04-25T00:56:54;5.40;99.90
5196;DHT22;2617;51.006;12.436;2023-04-25T01:01:57;5.30;99.90
5196;DHT22;2617;51.006;12.436;2023-04-25T01:07:00;5.30;99.90
5196;DHT22;2617;51.006;12.436;2023-04-25T01:12:03;5.30;99.90
5196;DHT22;2617;51.006;12.436;2023-04-25T01:17:06;5.30;99.90
5196;DHT22;2617;51.006;12.436;2023-04-25T01:22:09;5.20;99.90
5196;DHT22;2617;51.006;12.436;2023-04-25T01:27:12;5.20;99.90
5196;DHT22;2617;51.006;12.436;2023-04-25T01:32:14;5.20;99.90
5196;DHT22;2617;51.006;12.436;2023-04-25T01:37:17;5.00;99.90
5196;DHT22;2617;51.006;12.436;2023-04-25T01:42:20;4.90;99.90
5196;DHT22;2617;51.006;12.436;2023-04-25T01:47:22;4.90;99.90
5196;DHT22;2617;51.006;12.436;2023-04-25T01:52:24;4.90;99.90
5196;DHT22;2617;51.006;12.436;2023-04-25T01:57:27;4.80;99.90
5196;DHT22;2617;51.006;12.436;2023-04-25T02:02:29;4.80;99.90
5196;DHT22;2617;51.006;12.436;2023-04-25T02:07:32;4.70;99.90
5196;DHT22;2617;51.006;12.436;2023-04-25T02:12:35;4.60;99.90
5196;DHT22;2617;51.006;12.436;2023-04-25T02:17:37;4.60;99.90
5196;DHT22;2617;51.006;12.436;2023-04-25T02:22:39;4.60;99.90
5196;DHT22;2617;51.006;12.436;2023-04-25T02:27:42;4.50;99.90
5196;DHT22;2617;51.006;12.436;2023-04-25T02:32:44;4.50;99.90
5196;DHT22;2617;51.006;12.436;2023-04-25T02:37:46;4.50;99.90
5196;DHT22;2617;51.006;12.436;2023-04-25T02:42:49;4.40;99.90
5196;DHT22;2617;51.006;12.436;2023-04-25T02:47:52;4.30;99.90
5196;DHT22;2617;51.006;12.436;2023-04-25T02:52:55;4.30;99.90
5196;DHT22;2617;51.006;12.436;2023-04-25T02:57:57;4.30;99.90
5196;DHT22;2617;51.006;12.436;2023-04-25T03:02:59;4.20;99.90
5196;DHT22;2617;51.006;12.436;2023-04-25T03:08:02;4.10;99.90
5196;DHT22;2617;51.006;12.436;2023-04-25T03:13:04;4.00;99.90
5196;DHT22;2617;51.006;12.436;2023-04-25T03:18:07;4.00;99.90
5196;DHT22;2617;51.006;12.436;2023-04-25T03:23:10;3.90;99.90
5196;DHT22;2617;51.006;12.436;2023-04-25T03:28:13;3.90;99.90
5196;DHT22;2617;51.006;12.436;2023-04-25T03:33:15;3.90;99.90
5196;DHT22;2617;51.006;12.436;2023-04-25T03:38:18;3.80;99.90
5196;DHT22;2617;51.006;12.436;2023-04-25T03:43:20;3.80;99.90
5196;DHT22;2617;51.006;12.436;2023-04-25T03:48:23;3.70;99.90
5196;DHT22;2617;51.006;12.436;2023-04-25T03:53:26;3.70;99.90
5196;DHT22;2617;51.006;12.436;2023-04-25T03:58:30;3.70;99.90
5196;DHT22;2617;51.006;12.436;2023-04-25T04:03:33;3.60;99.90
5196;DHT22;2617;51.006;12.436;2023-04-25T04:08:35;3.70;99.90
5196;DHT22;2617;51.006;12.436;2023-04-25T04:13:38;3.80;99.90
5196;DHT22;2617;51.006;12.436;2023-04-25T04:18:40;4.00;99.90
5196;DHT22;2617;51.006;12.436;2023-04-25T04:23:42;4.20;99.90
5196;DHT22;2617;51.006;12.436;2023-04-25T04:28:45;4.40;99.90
5196;DHT22;2617;51.006;12.436;2023-04-25T04:33:47;4.70;99.90
5196;DHT22;2617;51.006;12.436;2023-04-25T04:38:50;5.90;99.90
5196;DHT22;2617;51.006;12.436;2023-04-25T04:43:52;8.30;99.90
5196;DHT22;2617;51.006;12.436;2023-04-25T04:48:54;10.40;99.90
5196;DHT22;2617;51.006;12.436;2023-04-25T04:53:58;12.10;99.90
5196;DHT22;2617;51.006;12.436;2023-04-25T04:59:00;13.30;99.90
5196;DHT22;2617;51.006;12.436;2023-04-25T05:04:02;13.80;94.50
5196;DHT22;2617;51.006;12.436;2023-04-25T05:09:05;14.20;92.60
5196;DHT22;2617;51.006;12.436;2023-04-25T05:14:07;13.80;92.20
5196;DHT22;2617;51.006;12.436;2023-04-25T05:19:09;11.90;94.80
5196;DHT22;2617;51.006;12.436;2023-04-25T05:24:12;10.30;99.00
5196;DHT22;2617;51.006;12.436;2023-04-25T05:29:14;9.20;99.90
5196;DHT22;2617;51.006;12.436;2023-04-25T05:34:17;8.90;99.90
5196;DHT22;2617;51.006;12.436;2023-04-25T05:39:19;8.70;99.90
5196;DHT22;2617;51.006;12.436;2023-04-25T05:44:22;8.30;99.90
5196;DHT22;2617;51.006;12.436;2023-04-25T05:49:24;8.00;99.90
5196;DHT22;2617;51.006;12.436;2023-04-25T05:54:28;8.10;99.90
5196;DHT22;2617;51.006;12.436;2023-04-25T05:59:31;8.50;99.90
5196;DHT22;2617;51.006;12.436;2023-04-25T06:04:33;8.50;99.90
5196;DHT22;2617;51.006;12.436;2023-04-25T06:09:36;8.70;99.90
5196;DHT22;2617;51.006;12.436;2023-04-25T06:14:38;8.70;99.90
5196;DHT22;2617;51.006;12.436;2023-04-25T06:19:41;8.80;99.90
5196;DHT22;2617;51.006;12.436;2023-04-25T06:24:43;9.00;99.90
5196;DHT22;2617;51.006;12.436;2023-04-25T06:29:46;9.20;99.90
5196;DHT22;2617;51.006;12.436;2023-04-25T06:34:49;9.20;99.90
5196;DHT22;2617;51.006;12.436;2023-04-25T06:39:51;9.20;99.90
5196;DHT22;2617;51.006;12.436;2023-04-25T06:44:54;9.20;99.90
5196;DHT22;2617;51.006;12.436;2023-04-25T06:49:56;9.40;99.90
5196;DHT22;2617;51.006;12.436;2023-04-25T06:55:00;9.60;99.90
5196;DHT22;2617;51.006;12.436;2023-04-25T07:00:03;9.60;99.90
5196;DHT22;2617;51.006;12.436;2023-04-25T07:05:08;9.60;99.90
5196;DHT22;2617;51.006;12.436;2023-04-25T07:10:11;9.90;99.90
5196;DHT22;2617;51.006;12.436;2023-04-25T07:15:14;9.90;99.90
5196;DHT22;2617;51.006;12.436;2023-04-25T07:20:17;9.80;99.90
5196;DHT22;2617;51.006;12.436;2023-04-25T07:25:19;9.80;99.90
5196;DHT22;2617;51.006;12.436;2023-04-25T07:30:22;9.60;99.90
5196;DHT22;2617;51.006;12.436;2023-04-25T07:35:24;9.20;99.90
5196;DHT22;2617;51.006;12.436;2023-04-25T07:40:27;9.40;99.90
5196;DHT22;2617;51.006;12.436;2023-04-25T07:45:29;9.50;99.90
5196;DHT22;2617;51.006;12.436;2023-04-25T07:50:32;9.70;99.90
5196;DHT22;2617;51.006;12.436;2023-04-25T07:55:35;9.50;99.90
5196;DHT22;2617;51.006;12.436;2023-04-25T08:00:37;9.50;99.90
5196;DHT22;2617;51.006;12.436;2023-04-25T08:05:40;9.50;99.90
5196;DHT22;2617;51.006;12.436;2023-04-25T08:10:42;9.30;99.90
5196;DHT22;2617;51.006;12.436;2023-04-25T08:15:45;9.10;99.90
5196;DHT22;2617;51.006;12.436;2023-04-25T08:20:47;9.00;99.90
5196;DHT22;2617;51.006;12.436;2023-04-25T08:25:49;8.90;99.90
5196;DHT22;2617;51.006;12.436;2023-04-25T08:30:52;9.00;99.90
5196;DHT22;2617;51.006;12.436;2023-04-25T08:35:54;9.00;99.90
5196;DHT22;2617;51.006;12.436;2023-04-25T08:40:57;9.10;99.90
5196;DHT22;2617;51.006;12.436;2023-04-25T08:46:00;9.00;99.90
5196;DHT22;2617;51.006;12.436;2023-04-25T08:51:03;9.00;99.90
5196;DHT22;2617;51.006;12.436;2023-04-25T08:56:06;9.40;99.90
5196;DHT22;2617;51.006;12.436;2023-04-25T09:01:09;9.40;99.90
5196;DHT22;2617;51.006;12.436;2023-04-25T09:06:12;9.20;99.90
5196;DHT22;2617;51.006;12.436;2023-04-25T09:11:14;9.20;99.90
5196;DHT22;2617;51.006;12.436;2023-04-25T09:16:17;9.00;99.90
5196;DHT22;2617;51.006;12.436;2023-04-25T09:21:21;8.80;99.90
5196;DHT22;2617;51.006;12.436;2023-04-25T09:26:22;8.30;99.90
5196;DHT22;2617;51.006;12.436;2023-04-25T09:31:25;8.30;99.90
5196;DHT22;2617;51.006;12.436;2023-04-25T09:36:27;8.10;99.90
5196;DHT22;2617;51.006;12.436;2023-04-25T09:41:31;7.90;99.90
5196;DHT22;2617;51.006;12.436;2023-04-25T09:46:34;7.90;99.90
5196;DHT22;2617;51.006;12.436;2023-04-25T09:51:38;7.90;99.90
5196;DHT22;2617;51.006;12.436;2023-04-25T09:56:41;7.70;99.90
5196;DHT22;2617;51.006;12.436;2023-04-25T10:01:43;7.60;99.90
5196;DHT22;2617;51.006;12.436;2023-04-25T10:06:46;7.50;99.90
5196;DHT22;2617;51.006;12.436;2023-04-25T10:11:48;7.50;99.90
5196;DHT22;2617;51.006;12.436;2023-04-25T10:16:50;7.50;99.90
5196;DHT22;2617;51.006;12.436;2023-04-25T10:27:20;7.80;99.90
5196;DHT22;2617;51.006;12.436;2023-04-25T10:32:23;7.80;99.90
5196;DHT22;2617;51.006;12.436;2023-04-25T10:37:25;8.00;99.90
5196;DHT22;2617;51.006;12.436;2023-04-25T10:42:29;8.20;99.90
5196;DHT22;2617;51.006;12.436;2023-04-25T10:47:35;8.20;99.90
5196;DHT22;2617;51.006;12.436;2023-04-25T10:52:40;8.50;99.90
5196;DHT22;2617;51.006;12.436;2023-04-25T10:57:44;8.70;99.90
5196;DHT22;2617;51.006;12.436;2023-04-25T11:02:47;8.60;99.90
5196;DHT22;2617;51.006;12.436;2023-04-25T11:07:54;8.30;99.90
5196;DHT22;2617;51.006;12.436;2023-04-25T11:12:57;8.20;99.90
5196;DHT22;2617;51.006;12.436;2023-04-25T11:18:01;8.20;99.90
5196;DHT22;2617;51.006;12.436;2023-04-25T11:23:04;8.20;99.90
5196;DHT22;2617;51.006;12.436;2023-04-25T11:28:06;8.20;99.90
5196;DHT22;2617;51.006;12.436;2023-04-25T11:33:09;8.20;99.90
5196;DHT22;2617;51.006;12.436;2023-04-25T11:38:12;7.90;99.90
5196;DHT22;2617;51.006;12.436;2023-04-25T11:43:15;7.80;99.90
5196;DHT22;2617;51.006;12.436;2023-04-25T11:48:18;7.80;99.90
5196;DHT22;2617;51.006;12.436;2023-04-25T11:53:21;7.90;99.90
5196;DHT22;2617;51.006;12.436;2023-04-25T11:58:23;7.90;99.90
5196;DHT22;2617;51.006;12.436;2023-04-25T12:03:26;8.40;99.90
5196;DHT22;2617;51.006;12.436;2023-04-25T12:08:28;8.80;99.90
5196;DHT22;2617;51.006;12.436;2023-04-25T12:13:31;9.10;99.90
5196;DHT22;2617;51.006;12.436;2023-04-25T12:18:35;9.60;99.90
5196;DHT22;2617;51.006;12.436;2023-04-25T12:23:38;10.00;99.90
5196;DHT22;2617;51.006;12.436;2023-04-25T12:28:38;10.10;99.90
5196;DHT22;2617;51.006;12.436;2023-04-25T12:33:41;10.30;99.90
5196;DHT22;2617;51.006;12.436;2023-04-25T12:38:43;10.40;99.90
5196;DHT22;2617;51.006;12.436;2023-04-25T12:43:45;10.70;99.90
5196;DHT22;2617;51.006;12.436;2023-04-25T12:48:48;10.90;99.90
5196;DHT22;2617;51.006;12.436;2023-04-25T12:53:51;11.20;99.90
5196;DHT22;2617;51.006;12.436;2023-04-25T12:58:53;11.20;99.90
5196;DHT22;2617;51.006;12.436;2023-04-25T13:03:55;11.10;99.90
5196;DHT22;2617;51.006;12.436;2023-04-25T13:08:58;11.30;99.90
5196;DHT22;2617;51.006;12.436;2023-04-25T13:14:02;11.30;99.20
5196;DHT22;2617;51.006;12.436;2023-04-25T13:19:04;11.30;99.20
5196;DHT22;2617;51.006;12.436;2023-04-25T13:24:07;11.30;99.90
5196;DHT22;2617;51.006;12.436;2023-04-25T13:29:09;11.10;99.80
5196;DHT22;2617;51.006;12.436;2023-04-25T13:34:11;11.00;99.00
5196;DHT22;2617;51.006;12.436;2023-04-25T13:39:14;10.50;99.80
5196;DHT22;2617;51.006;12.436;2023-04-25T13:44:16;9.90;99.90
5196;DHT22;2617;51.006;12.436;2023-04-25T13:49:19;9.30;99.90
5196;DHT22;2617;51.006;12.436;2023-04-25T13:54:21;8.90;99.90
5196;DHT22;2617;51.006;12.436;2023-04-25T13:59:23;8.90;99.90
5196;DHT22;2617;51.006;12.436;2023-04-25T14:04:27;8.90;99.90
5196;DHT22;2617;51.006;12.436;2023-04-25T14:09:29;8.80;99.90
5196;DHT22;2617;51.006;12.436;2023-04-25T14:14:32;8.60;99.90
5196;DHT22;2617;51.006;12.436;2023-04-25T14:19:35;8.50;99.90
5196;DHT22;2617;51.006;12.436;2023-04-25T14:24:38;9.30;98.90
5196;DHT22;2617;51.006;12.436;2023-04-25T14:29:40;9.30;98.90
5196;DHT22;2617;51.006;12.436;2023-04-25T14:34:43;9.80;98.80
5196;DHT22;2617;51.006;12.436;2023-04-25T14:39:45;10.10;94.70
5196;DHT22;2617;51.006;12.436;2023-04-25T14:44:48;10.50;94.90
5196;DHT22;2617;51.006;12.436;2023-04-25T14:49:50;10.70;94.00
5196;DHT22;2617;51.006;12.436;2023-04-25T14:54:53;10.70;93.80
5196;DHT22;2617;51.006;12.436;2023-04-25T14:59:55;10.30;93.20
5196;DHT22;2617;51.006;12.436;2023-04-25T15:04:58;10.20;92.70
5196;DHT22;2617;51.006;12.436;2023-04-25T15:10:00;9.90;91.60
5196;DHT22;2617;51.006;12.436;2023-04-25T15:15:03;9.80;92.30
5196;DHT22;2617;51.006;12.436;2023-04-25T15:20:08;10.00;90.30
5196;DHT22;2617;51.006;12.436;2023-04-25T15:25:11;10.00;90.30
5196;DHT22;2617;51.006;12.436;2023-04-25T15:30:14;10.00;90.70
5196;DHT22;2617;51.006;12.436;2023-04-25T15:35:16;9.80;92.50
5196;DHT22;2617;51.006;12.436;2023-04-25T15:40:20;9.30;90.70
5196;DHT22;2617;51.006;12.436;2023-04-25T15:45:23;9.30;91.00
5196;DHT22;2617;51.006;12.436;2023-04-25T15:50:25;9.20;91.10
5196;DHT22;2617;51.006;12.436;2023-04-25T15:55:28;9.20;91.10
5196;DHT22;2617;51.006;12.436;2023-04-25T16:00:31;9.20;88.70
5196;DHT22;2617;51.006;12.436;2023-04-25T16:05:33;9.20;88.60
5196;DHT22;2617;51.006;12.436;2023-04-25T16:10:37;9.30;88.30
5196;DHT22;2617;51.006;12.436;2023-04-25T16:15:39;9.30;88.90
5196;DHT22;2617;51.006;12.436;2023-04-25T16:20:42;9.50;88.70
5196;DHT22;2617;51.006;12.436;2023-04-25T16:25:45;9.80;90.00
5196;DHT22;2617;51.006;12.436;2023-04-25T16:30:47;9.70;89.80
5196;DHT22;2617;51.006;12.436;2023-04-25T16:35:51;9.70;90.30
5196;DHT22;2617;51.006;12.436;2023-04-25T16:40:53;9.60;90.20
5196;DHT22;2617;51.006;12.436;2023-04-25T16:45:55;9.50;86.40
5196;DHT22;2617;51.006;12.436;2023-04-25T16:50:58;9.30;82.80
5196;DHT22;2617;51.006;12.436;2023-04-25T16:56:00;9.10;84.40
5196;DHT22;2617;51.006;12.436;2023-04-25T17:01:03;9.10;86.60
5196;DHT22;2617;51.006;12.436;2023-04-25T17:06:06;9.00;86.60
5196;DHT22;2617;51.006;12.436;2023-04-25T17:11:08;8.80;88.50
5196;DHT22;2617;51.006;12.436;2023-04-25T17:16:11;8.60;90.20
5196;DHT22;2617;51.006;12.436;2023-04-25T17:21:14;8.40;90.90
5196;DHT22;2617;51.006;12.436;2023-04-25T17:26:16;8.40;90.90
5196;DHT22;2617;51.006;12.436;2023-04-25T17:31:20;8.30;91.70
5196;DHT22;2617;51.006;12.436;2023-04-25T17:36:23;8.30;90.60
5196;DHT22;2617;51.006;12.436;2023-04-25T17:41:25;8.30;90.80
5196;DHT22;2617;51.006;12.436;2023-04-25T17:46:28;8.20;91.40
5196;DHT22;2617;51.006;12.436;2023-04-25T17:51:31;8.20;91.40
5196;DHT22;2617;51.006;12.436;2023-04-25T17:56:35;8.10;91.70
5196;DHT22;2617;51.006;12.436;2023-04-25T18:01:39;7.80;93.00
5196;DHT22;2617;51.006;12.436;2023-04-25T18:06:42;7.50;94.00
5196;DHT22;2617;51.006;12.436;2023-04-25T18:11:44;7.50;93.70
5196;DHT22;2617;51.006;12.436;2023-04-25T18:16:47;7.40;94.50
5196;DHT22;2617;51.006;12.436;2023-04-25T18:21:50;7.20;95.00
5196;DHT22;2617;51.006;12.436;2023-04-25T18:26:53;7.00;95.70
5196;DHT22;2617;51.006;12.436;2023-04-25T18:31:55;6.80;96.40
5196;DHT22;2617;51.006;12.436;2023-04-25T18:36:57;6.70;96.90
5196;DHT22;2617;51.006;12.436;2023-04-25T18:42:00;6.50;97.60
5196;DHT22;2617;51.006;12.436;2023-04-25T18:47:02;6.20;98.40
5196;DHT22;2617;51.006;12.436;2023-04-25T18:52:05;6.10;99.40
5196;DHT22;2617;51.006;12.436;2023-04-25T18:57:10;5.90;99.90
5196;DHT22;2617;51.006;12.436;2023-04-25T19:02:12;5.80;99.90
5196;DHT22;2617;51.006;12.436;2023-04-25T19:07:14;5.60;99.90
5196;DHT22;2617;51.006;12.436;2023-04-25T19:12:17;5.50;99.90
5196;DHT22;2617;51.006;12.436;2023-04-25T19:17:19;5.40;99.90
5196;DHT22;2617;51.006;12.436;2023-04-25T19:22:22;5.30;99.90
5196;DHT22;2617;51.006;12.436;2023-04-25T19:27:25;5.30;99.90
5196;DHT22;2617;51.006;12.436;2023-04-25T19:32:28;5.20;99.90
5196;DHT22;2617;51.006;12.436;2023-04-25T19:37:30;5.20;99.90
5196;DHT22;2617;51.006;12.436;2023-04-25T19:42:34;5.20;99.90
5196;DHT22;2617;51.006;12.436;2023-04-25T19:47:36;5.20;99.90
5196;DHT22;2617;51.006;12.436;2023-04-25T19:52:39;5.10;99.90
5196;DHT22;2617;51.006;12.436;2023-04-25T19:57:42;5.00;99.90
5196;DHT22;2617;51.006;12.436;2023-04-25T20:02:45;5.00;99.90
5196;DHT22;2617;51.006;12.436;2023-04-25T20:07:47;4.90;99.90
5196;DHT22;2617;51.006;12.436;2023-04-25T20:12:50;5.00;99.90
5196;DHT22;2617;51.006;12.436;2023-04-25T20:17:53;5.40;99.90
5196;DHT22;2617;51.006;12.436;2023-04-25T20:22:55;5.40;99.90
5196;DHT22;2617;51.006;12.436;2023-04-25T20:27:58;5.50;99.90
5196;DHT22;2617;51.006;12.436;2023-04-25T20:33:00;5.50;99.90
5196;DHT22;2617;51.006;12.436;2023-04-25T20:38:03;5.40;99.90
5196;DHT22;2617;51.006;12.436;2023-04-25T20:43:05;5.40;99.90
5196;DHT22;2617;51.006;12.436;2023-04-25T20:48:08;5.40;99.90
5196;DHT22;2617;51.006;12.436;2023-04-25T20:53:10;5.40;99.90
5196;DHT22;2617;51.006;12.436;2023-04-25T20:58:13;5.40;99.90
5196;DHT22;2617;51.006;12.436;2023-04-25T21:03:15;5.40;99.90
5196;DHT22;2617;51.006;12.436;2023-04-25T21:08:17;5.40;99.90
5196;DHT22;2617;51.006;12.436;2023-04-25T21:13:20;5.40;99.90
5196;DHT22;2617;51.006;12.436;2023-04-25T21:18:22;5.40;99.90
5196;DHT22;2617;51.006;12.436;2023-04-25T21:23:25;5.30;99.90
5196;DHT22;2617;51.006;12.436;2023-04-25T21:28:27;5.30;99.90
5196;DHT22;2617;51.006;12.436;2023-04-25T21:33:30;5.30;99.90
5196;DHT22;2617;51.006;12.436;2023-04-25T21:38:33;5.10;99.90
5196;DHT22;2617;51.006;12.436;2023-04-25T21:43:35;5.10;99.90
5196;DHT22;2617;51.006;12.436;2023-04-25T21:48:38;5.10;99.90
5196;DHT22;2617;51.006;12.436;2023-04-25T21:53:41;5.10;99.90
5196;DHT22;2617;51.006;12.436;2023-04-25T21:58:44;5.10;99.90
5196;DHT22;2617;51.006;12.436;2023-04-25T22:03:46;5.10;99.90
5196;DHT22;2617;51.006;12.436;2023-04-25T22:08:48;5.20;99.90
5196;DHT22;2617;51.006;12.436;2023-04-25T22:13:51;5.10;99.90
5196;DHT22;2617;51.006;12.436;2023-04-25T22:18:53;5.10;99.90
5196;DHT22;2617;51.006;12.436;2023-04-25T22:23:56;5.10;99.90
5196;DHT22;2617;51.006;12.436;2023-04-25T22:28:59;5.10;99.90
5196;DHT22;2617;51.006;12.436;2023-04-25T22:34:01;5.10;99.90
5196;DHT22;2617;51.006;12.436;2023-04-25T22:39:04;4.90;99.90
5196;DHT22;2617;51.006;12.436;2023-04-25T22:44:08;4.80;99.90
5196;DHT22;2617;51.006;12.436;2023-04-25T22:49:10;4.70;99.90
5196;DHT22;2617;51.006;12.436;2023-04-25T22:54:13;4.60;99.90
5196;DHT22;2617;51.006;12.436;2023-04-25T22:59:15;4.50;99.90
5196;DHT22;2617;51.006;12.436;2023-04-25T23:04:18;4.40;99.90
5196;DHT22;2617;51.006;12.436;2023-04-25T23:09:21;4.40;99.90
5196;DHT22;2617;51.006;12.436;2023-04-25T23:14:23;4.30;99.90
5196;DHT22;2617;51.006;12.436;2023-04-25T23:19:26;4.30;99.90
5196;DHT22;2617;51.006;12.436;2023-04-25T23:24:28;4.30;99.90
5196;DHT22;2617;51.006;12.436;2023-04-25T23:29:30;4.30;99.90
5196;DHT22;2617;51.006;12.436;2023-04-25T23:34:33;4.30;99.90
5196;DHT22;2617;51.006;12.436;2023-04-25T23:39:36;4.20;99.90
5196;DHT22;2617;51.006;12.436;2023-04-25T23:44:39;4.20;99.90
5196;DHT22;2617;51.006;12.436;2023-04-25T23:49:43;4.20;99.90
5196;DHT22;2617;51.006;12.436;2023-04-25T23:54:45;4.10;99.90
5196;DHT22;2617;51.006;12.436;2023-04-25T23:59:47;4.10;99.90
